sensor_id;sensor_type;location;lat;lon;timestamp;pressure;altitude;pressure_sealevel;temperature;humidity
59767;BME280;46248;58.364;25.582;2022-10-22T00:00:47;101010.38;;;5.12;89.93
59767;BME280;46248;58.364;25.582;2022-10-22T00:04:11;101014.69;;;5.11;90.00
59767;BME280;46248;58.364;25.582;2022-10-22T00:07:33;101006.97;;;5.08;89.93
59767;BME280;46248;58.364;25.582;2022-10-22T00:10:56;100989.06;;;4.96;89.84
59767;BME280;46248;58.364;25.582;2022-10-22T00:14:18;101007.16;;;4.99;89.84
59767;BME280;46248;58.364;25.582;2022-10-22T00:17:40;101002.09;;;4.94;90.17
59767;BME280;46248;58.364;25.582;2022-10-22T00:21:04;100995.22;;;4.92;89.84
59767;BME280;46248;58.364;25.582;2022-10-22T00:24:26;100997.03;;;4.88;89.79
59767;BME280;46248;58.364;25.582;2022-10-22T00:27:48;100990.16;;;4.86;90.48
59767;BME280;46248;58.364;25.582;2022-10-22T00:31:10;100984.19;;;4.80;90.43
59767;BME280;46248;58.364;25.582;2022-10-22T00:34:32;100984.19;;;4.80;90.87
59767;BME280;46248;58.364;25.582;2022-10-22T00:37:56;100978.19;;;4.78;91.01
59767;BME280;46248;58.364;25.582;2022-10-22T00:41:18;100973.06;;;4.74;90.87
59767;BME280;46248;58.364;25.582;2022-10-22T00:48:37;100971.75;;;4.54;90.56
59767;BME280;46248;58.364;25.582;2022-10-22T00:51:59;100932.44;;;4.29;90.55
59767;BME280;46248;58.364;25.582;2022-10-22T00:55:23;100974.56;;;4.42;89.74
59767;BME280;46248;58.364;25.582;2022-10-22T00:58:48;100948.16;;;4.22;89.71
59767;BME280;46248;58.364;25.582;2022-10-22T01:02:11;100967.94;;;4.26;89.99
59767;BME280;46248;58.364;25.582;2022-10-22T01:05:39;100967.19;;;4.21;90.66
59767;BME280;46248;58.364;25.582;2022-10-22T01:09:09;100957.78;;;4.15;90.17
59767;BME280;46248;58.364;25.582;2022-10-22T01:12:43;100953.59;;;4.06;90.11
59767;BME280;46248;58.364;25.582;2022-10-22T01:16:10;100950.31;;;3.97;90.63
59767;BME280;46248;58.364;25.582;2022-10-22T01:19:45;100956.34;;;3.97;90.71
59767;BME280;46248;58.364;25.582;2022-10-22T01:23:19;100953.03;;;3.89;90.33
59767;BME280;46248;58.364;25.582;2022-10-22T01:26:55;100963.44;;;3.86;89.87
59767;BME280;46248;58.364;25.582;2022-10-22T01:30:22;100960.94;;;3.81;90.50
59767;BME280;46248;58.364;25.582;2022-10-22T01:33:46;100959.25;;;3.77;89.68
59767;BME280;46248;58.364;25.582;2022-10-22T01:37:11;100928.53;;;3.57;90.87
59767;BME280;46248;58.364;25.582;2022-10-22T01:40:35;100955.06;;;3.70;90.74
59767;BME280;46248;58.364;25.582;2022-10-22T01:43:57;100955.16;;;3.64;90.94
59767;BME280;46248;58.364;25.582;2022-10-22T01:47:30;100946.66;;;3.57;91.67
59767;BME280;46248;58.364;25.582;2022-10-22T01:51:06;100946.59;;;3.60;92.23
59767;BME280;46248;58.364;25.582;2022-10-22T01:54:38;100945.00;;;3.52;92.11
59767;BME280;46248;58.364;25.582;2022-10-22T01:58:12;100951.03;;;3.52;92.29
59767;BME280;46248;58.364;25.582;2022-10-22T02:01:43;100940.78;;;3.44;91.93
59767;BME280;46248;58.364;25.582;2022-10-22T02:05:13;100946.88;;;3.42;91.77
59767;BME280;46248;58.364;25.582;2022-10-22T02:08:38;100905.03;;;3.12;92.30
59767;BME280;46248;58.364;25.582;2022-10-22T02:12:01;100934.97;;;3.30;92.98
59767;BME280;46248;58.364;25.582;2022-10-22T02:15:30;100934.19;;;3.25;91.73
59767;BME280;46248;58.364;25.582;2022-10-22T02:18:56;100933.47;;;3.15;91.75
59767;BME280;46248;58.364;25.582;2022-10-22T02:22:20;100926.59;;;3.13;92.35
59767;BME280;46248;58.364;25.582;2022-10-22T02:25:47;100919.00;;;2.99;92.71
59767;BME280;46248;58.364;25.582;2022-10-22T02:29:14;100927.63;;;3.01;92.65
59767;BME280;46248;58.364;25.582;2022-10-22T02:32:43;100925.91;;;2.98;93.39
59767;BME280;46248;58.364;25.582;2022-10-22T02:36:08;100912.28;;;2.86;93.04
59767;BME280;46248;58.364;25.582;2022-10-22T02:39:33;100927.72;;;2.92;92.85
59767;BME280;46248;58.364;25.582;2022-10-22T02:42:56;100930.38;;;2.87;93.06
59767;BME280;46248;58.364;25.582;2022-10-22T02:46:19;100932.19;;;2.81;92.62
59767;BME280;46248;58.364;25.582;2022-10-22T02:49:41;100924.53;;;2.73;92.26
59767;BME280;46248;58.364;25.582;2022-10-22T02:53:03;100906.59;;;2.59;92.49
59767;BME280;46248;58.364;25.582;2022-10-22T02:56:26;100932.44;;;2.59;92.57
59767;BME280;46248;58.364;25.582;2022-10-22T02:59:48;100924.72;;;2.56;92.82
59767;BME280;46248;58.364;25.582;2022-10-22T03:03:10;100924.75;;;2.53;92.65
59767;BME280;46248;58.364;25.582;2022-10-22T03:06:32;100922.25;;;2.48;92.60
59767;BME280;46248;58.364;25.582;2022-10-22T03:09:54;100927.44;;;2.45;92.52
59767;BME280;46248;58.364;25.582;2022-10-22T03:13:17;100924.06;;;2.40;93.31
59767;BME280;46248;58.364;25.582;2022-10-22T03:16:39;100914.63;;;2.36;92.86
59767;BME280;46248;58.364;25.582;2022-10-22T03:20:01;100920.59;;;2.41;93.79
59767;BME280;46248;58.364;25.582;2022-10-22T03:23:23;100912.03;;;2.38;94.15
59767;BME280;46248;58.364;25.582;2022-10-22T03:26:46;100919.81;;;2.36;93.87
59767;BME280;46248;58.364;25.582;2022-10-22T03:30:11;100908.63;;;2.34;94.35
59767;BME280;46248;58.364;25.582;2022-10-22T03:33:33;100903.47;;;2.31;94.26
59767;BME280;46248;58.364;25.582;2022-10-22T03:36:56;100907.81;;;2.31;94.29
59767;BME280;46248;58.364;25.582;2022-10-22T03:40:19;100902.66;;;2.27;94.57
59767;BME280;46248;58.364;25.582;2022-10-22T03:43:41;100901.81;;;2.25;94.15
59767;BME280;46248;58.364;25.582;2022-10-22T03:47:10;100901.00;;;2.22;93.93
59767;BME280;46248;58.364;25.582;2022-10-22T03:50:31;100882.22;;;2.04;93.68
59767;BME280;46248;58.364;25.582;2022-10-22T03:53:53;100894.25;;;2.07;93.89
59767;BME280;46248;58.364;25.582;2022-10-22T03:57:15;100895.97;;;2.10;94.30
59767;BME280;46248;58.364;25.582;2022-10-22T04:00:37;100903.69;;;2.11;94.66
59767;BME280;46248;58.364;25.582;2022-10-22T04:04:00;100889.13;;;2.02;94.29
59767;BME280;46248;58.364;25.582;2022-10-22T04:07:23;100894.31;;;1.99;93.74
59767;BME280;46248;58.364;25.582;2022-10-22T04:10:50;100899.50;;;2.01;94.14
59767;BME280;46248;58.364;25.582;2022-10-22T04:14:11;100892.66;;;1.97;94.16
59767;BME280;46248;58.364;25.582;2022-10-22T04:17:34;100885.81;;;1.90;94.07
59767;BME280;46248;58.364;25.582;2022-10-22T04:20:57;100884.09;;;1.90;94.42
59767;BME280;46248;58.364;25.582;2022-10-22T04:24:19;100879.00;;;1.81;94.30
59767;BME280;46248;58.364;25.582;2022-10-22T04:27:41;100875.59;;;1.80;94.15
59767;BME280;46248;58.364;25.582;2022-10-22T04:31:07;100887.63;;;1.81;94.59
59767;BME280;46248;58.364;25.582;2022-10-22T04:34:29;100885.88;;;1.83;95.02
59767;BME280;46248;58.364;25.582;2022-10-22T04:37:53;100881.59;;;1.82;94.66
59767;BME280;46248;58.364;25.582;2022-10-22T04:41:17;100871.31;;;1.75;94.49
59767;BME280;46248;58.364;25.582;2022-10-22T04:44:39;100861.91;;;1.69;94.68
59767;BME280;46248;58.364;25.582;2022-10-22T04:48:01;100885.09;;;1.75;94.99
59767;BME280;46248;58.364;25.582;2022-10-22T04:51:25;100888.50;;;1.80;94.59
59767;BME280;46248;58.364;25.582;2022-10-22T04:54:48;100882.47;;;1.78;94.81
59767;BME280;46248;58.364;25.582;2022-10-22T04:58:10;100886.81;;;1.76;94.77
59767;BME280;46248;58.364;25.582;2022-10-22T05:01:33;100887.66;;;1.75;94.77
59767;BME280;46248;58.364;25.582;2022-10-22T05:05:02;100882.53;;;1.72;94.11
59767;BME280;46248;58.364;25.582;2022-10-22T05:08:24;100843.19;;;1.49;94.11
59767;BME280;46248;58.364;25.582;2022-10-22T05:11:49;100879.13;;;1.69;94.23
59767;BME280;46248;58.364;25.582;2022-10-22T05:15:12;100881.72;;;1.69;94.53
59767;BME280;46248;58.364;25.582;2022-10-22T05:18:35;100885.16;;;1.71;94.65
59767;BME280;46248;58.364;25.582;2022-10-22T05:21:58;100860.28;;;1.59;94.63
59767;BME280;46248;58.364;25.582;2022-10-22T05:25:21;100872.25;;;1.68;94.41
59767;BME280;46248;58.364;25.582;2022-10-22T05:28:44;100881.72;;;1.70;94.98
59767;BME280;46248;58.364;25.582;2022-10-22T05:32:06;100871.38;;;1.70;94.80
59767;BME280;46248;58.364;25.582;2022-10-22T05:35:28;100875.69;;;1.70;94.51
59767;BME280;46248;58.364;25.582;2022-10-22T05:38:51;100871.38;;;1.69;94.67
59767;BME280;46248;58.364;25.582;2022-10-22T05:42:12;100867.97;;;1.70;95.00
59767;BME280;46248;58.364;25.582;2022-10-22T05:45:37;100865.34;;;1.73;95.21
59767;BME280;46248;58.364;25.582;2022-10-22T05:48:59;100843.91;;;1.63;95.12
59767;BME280;46248;58.364;25.582;2022-10-22T05:52:22;100861.81;;;1.80;95.14
59767;BME280;46248;58.364;25.582;2022-10-22T05:55:44;100859.22;;;1.83;95.45
59767;BME280;46248;58.364;25.582;2022-10-22T05:59:06;100842.94;;;1.76;95.27
59767;BME280;46248;58.364;25.582;2022-10-22T06:02:29;100853.16;;;1.84;95.22
59767;BME280;46248;58.364;25.582;2022-10-22T06:05:51;100847.09;;;1.90;95.12
59767;BME280;46248;58.364;25.582;2022-10-22T06:09:16;100811.97;;;1.72;95.00
59767;BME280;46248;58.364;25.582;2022-10-22T06:12:38;100857.38;;;1.94;95.31
59767;BME280;46248;58.364;25.582;2022-10-22T06:16:00;100847.03;;;1.96;95.23
59767;BME280;46248;58.364;25.582;2022-10-22T06:19:24;100847.00;;;1.99;95.16
59767;BME280;46248;58.364;25.582;2022-10-22T06:22:46;100842.69;;;2.01;95.41
59767;BME280;46248;58.364;25.582;2022-10-22T06:26:09;100854.63;;;2.08;94.93
59767;BME280;46248;58.364;25.582;2022-10-22T06:29:31;100840.00;;;2.10;95.15
59767;BME280;46248;58.364;25.582;2022-10-22T06:32:53;100847.66;;;2.16;94.96
59767;BME280;46248;58.364;25.582;2022-10-22T06:36:19;100840.75;;;2.18;95.12
59767;BME280;46248;58.364;25.582;2022-10-22T06:39:41;100850.19;;;2.22;95.21
59767;BME280;46248;58.364;25.582;2022-10-22T06:43:03;100850.97;;;2.29;94.92
59767;BME280;46248;58.364;25.582;2022-10-22T06:46:25;100842.28;;;2.36;94.95
59767;BME280;46248;58.364;25.582;2022-10-22T06:49:48;100826.81;;;2.33;95.08
59767;BME280;46248;58.364;25.582;2022-10-22T06:53:11;100839.47;;;2.53;95.19
59767;BME280;46248;58.364;25.582;2022-10-22T06:56:33;100833.31;;;2.60;95.53
59767;BME280;46248;58.364;25.582;2022-10-22T06:59:55;100830.59;;;2.72;94.59
59767;BME280;46248;58.364;25.582;2022-10-22T07:03:17;100840.72;;;2.86;94.83
59767;BME280;46248;58.364;25.582;2022-10-22T07:06:39;100835.41;;;2.95;94.71
59767;BME280;46248;58.364;25.582;2022-10-22T07:10:03;100840.38;;;3.11;94.61
59767;BME280;46248;58.364;25.582;2022-10-22T07:13:25;100841.06;;;3.22;93.76
59767;BME280;46248;58.364;25.582;2022-10-22T07:16:47;100839.13;;;3.35;93.87
59767;BME280;46248;58.364;25.582;2022-10-22T07:20:10;100802.09;;;3.31;92.96
59767;BME280;46248;58.364;25.582;2022-10-22T07:23:32;100836.16;;;3.58;93.04
59767;BME280;46248;58.364;25.582;2022-10-22T07:26:56;100823.91;;;3.66;92.67
59767;BME280;46248;58.364;25.582;2022-10-22T07:30:18;100834.81;;;3.85;92.02
59767;BME280;46248;58.364;25.582;2022-10-22T07:33:40;100816.56;;;3.89;91.41
59767;BME280;46248;58.364;25.582;2022-10-22T07:37:02;100836.94;;;4.08;90.94
59767;BME280;46248;58.364;25.582;2022-10-22T07:40:24;100839.34;;;4.19;91.16
59767;BME280;46248;58.364;25.582;2022-10-22T07:43:47;100843.31;;;4.35;90.91
59767;BME280;46248;58.364;25.582;2022-10-22T07:47:09;100836.13;;;4.48;90.39
59767;BME280;46248;58.364;25.582;2022-10-22T07:50:31;100828.13;;;4.60;89.25
59767;BME280;46248;58.364;25.582;2022-10-22T07:53:53;100809.94;;;4.62;89.00
59767;BME280;46248;58.364;25.582;2022-10-22T07:57:15;100826.69;;;4.84;88.22
59767;BME280;46248;58.364;25.582;2022-10-22T08:00:39;100829.91;;;4.97;88.38
59767;BME280;46248;58.364;25.582;2022-10-22T08:04:01;100806.47;;;5.00;87.86
59767;BME280;46248;58.364;25.582;2022-10-22T08:07:23;100813.75;;;5.20;87.15
59767;BME280;46248;58.364;25.582;2022-10-22T08:10:47;100807.47;;;5.30;86.17
59767;BME280;46248;58.364;25.582;2022-10-22T08:14:12;100804.59;;;5.41;86.08
59767;BME280;46248;58.364;25.582;2022-10-22T08:17:35;100800.06;;;5.49;86.18
59767;BME280;46248;58.364;25.582;2022-10-22T08:20:57;100794.56;;;5.60;84.62
59767;BME280;46248;58.364;25.582;2022-10-22T08:24:19;100801.28;;;5.68;84.07
59767;BME280;46248;58.364;25.582;2022-10-22T08:27:42;100779.78;;;5.63;83.92
59767;BME280;46248;58.364;25.582;2022-10-22T08:31:04;100796.53;;;5.84;82.56
59767;BME280;46248;58.364;25.582;2022-10-22T08:34:28;100792.03;;;5.91;82.92
59767;BME280;46248;58.364;25.582;2022-10-22T08:37:50;100798.69;;;6.01;81.85
59767;BME280;46248;58.364;25.582;2022-10-22T08:41:15;100795.06;;;6.07;81.32
59767;BME280;46248;58.364;25.582;2022-10-22T08:44:49;100766.53;;;6.05;81.12
59767;BME280;46248;58.364;25.582;2022-10-22T08:48:28;100776.44;;;6.22;80.97
59767;BME280;46248;58.364;25.582;2022-10-22T08:51:58;100765.84;;;6.28;78.98
59767;BME280;46248;58.364;25.582;2022-10-22T08:55:22;100773.38;;;6.37;78.47
59767;BME280;46248;58.364;25.582;2022-10-22T08:58:50;100769.81;;;6.41;78.56
59767;BME280;46248;58.364;25.582;2022-10-22T09:02:25;100759.25;;;6.46;78.52
59767;BME280;46248;58.364;25.582;2022-10-22T09:05:56;100729.25;;;6.34;76.05
59767;BME280;46248;58.364;25.582;2022-10-22T09:09:25;100758.75;;;6.63;76.63
59767;BME280;46248;58.364;25.582;2022-10-22T09:12:48;100726.16;;;6.51;76.04
59767;BME280;46248;58.364;25.582;2022-10-22T09:16:15;100742.88;;;6.71;76.06
59767;BME280;46248;58.364;25.582;2022-10-22T09:19:45;100735.81;;;6.74;75.69
59767;BME280;46248;58.364;25.582;2022-10-22T09:23:21;100740.78;;;6.82;74.88
59767;BME280;46248;58.364;25.582;2022-10-22T09:26:46;100734.56;;;6.86;74.70
59767;BME280;46248;58.364;25.582;2022-10-22T09:30:14;100722.28;;;6.91;75.24
59767;BME280;46248;58.364;25.582;2022-10-22T09:33:37;100730.53;;;7.04;75.17
59767;BME280;46248;58.364;25.582;2022-10-22T09:37:01;100720.84;;;7.07;73.90
59767;BME280;46248;58.364;25.582;2022-10-22T09:40:23;100712.09;;;7.10;73.98
59767;BME280;46248;58.364;25.582;2022-10-22T09:43:47;100711.84;;;7.18;73.38
59767;BME280;46248;58.364;25.582;2022-10-22T09:47:28;100711.56;;;7.25;73.22
59767;BME280;46248;58.364;25.582;2022-10-22T09:51:16;100707.88;;;7.32;74.09
59767;BME280;46248;58.364;25.582;2022-10-22T09:54:40;100702.34;;;7.42;72.46
59767;BME280;46248;58.364;25.582;2022-10-22T09:58:03;100697.78;;;7.47;71.95
59767;BME280;46248;58.364;25.582;2022-10-22T10:01:28;100690.03;;;7.45;71.59
59767;BME280;46248;58.364;25.582;2022-10-22T10:04:53;100695.19;;;7.47;71.60
59767;BME280;46248;58.364;25.582;2022-10-22T10:08:16;100693.28;;;7.52;71.47
59767;BME280;46248;58.364;25.582;2022-10-22T10:11:42;100699.22;;;7.55;70.99
59767;BME280;46248;58.364;25.582;2022-10-22T10:15:13;100695.53;;;7.61;70.34
59767;BME280;46248;58.364;25.582;2022-10-22T10:18:50;100690.06;;;7.69;70.95
59767;BME280;46248;58.364;25.582;2022-10-22T10:22:24;100687.34;;;7.72;70.92
59767;BME280;46248;58.364;25.582;2022-10-22T10:25:54;100680.31;;;7.74;71.12
59767;BME280;46248;58.364;25.582;2022-10-22T10:29:29;100673.22;;;7.77;69.81
59767;BME280;46248;58.364;25.582;2022-10-22T10:33:08;100668.06;;;7.76;70.25
59767;BME280;46248;58.364;25.582;2022-10-22T10:36:38;100663.47;;;7.83;71.84
59767;BME280;46248;58.364;25.582;2022-10-22T10:44:47;100646.28;;;8.00;69.81
59767;BME280;46248;58.364;25.582;2022-10-22T10:52:12;100656.69;;;8.24;69.48
59767;BME280;46248;58.364;25.582;2022-10-22T10:55:51;100660.84;;;8.28;70.23
59767;BME280;46248;58.364;25.582;2022-10-22T10:59:18;100644.34;;;8.27;69.87
59767;BME280;46248;58.364;25.582;2022-10-22T11:03:14;100645.16;;;8.30;67.90
59767;BME280;46248;58.364;25.582;2022-10-22T11:06:38;100634.84;;;8.26;69.09
59767;BME280;46248;58.364;25.582;2022-10-22T11:10:08;100632.34;;;8.23;69.16
59767;BME280;46248;58.364;25.582;2022-10-22T11:13:37;100630.63;;;8.22;68.18
59767;BME280;46248;58.364;25.582;2022-10-22T11:17:04;100620.28;;;8.21;68.46
59767;BME280;46248;58.364;25.582;2022-10-22T11:20:31;100623.72;;;8.21;69.74
59767;BME280;46248;58.364;25.582;2022-10-22T11:24:03;100618.41;;;8.24;69.95
59767;BME280;46248;58.364;25.582;2022-10-22T11:27:34;100617.47;;;8.25;69.62
59767;BME280;46248;58.364;25.582;2022-10-22T11:31:01;100587.59;;;8.12;69.83
59767;BME280;46248;58.364;25.582;2022-10-22T11:34:26;100608.75;;;8.26;69.59
59767;BME280;46248;58.364;25.582;2022-10-22T11:37:54;100606.91;;;8.29;70.12
59767;BME280;46248;58.364;25.582;2022-10-22T11:41:18;100602.50;;;8.31;69.33
59767;BME280;46248;58.364;25.582;2022-10-22T11:44:57;100596.44;;;8.30;68.47
59767;BME280;46248;58.364;25.582;2022-10-22T11:48:26;100570.97;;;8.15;68.78
59767;BME280;46248;58.364;25.582;2022-10-22T11:51:49;100579.97;;;8.28;68.98
59767;BME280;46248;58.364;25.582;2022-10-22T11:55:41;100583.31;;;8.32;68.73
59767;BME280;46248;58.364;25.582;2022-10-22T11:59:33;100566.22;;;8.24;68.18
59767;BME280;46248;58.364;25.582;2022-10-22T12:03:03;100569.41;;;8.31;70.23
59767;BME280;46248;58.364;25.582;2022-10-22T12:06:26;100570.22;;;8.33;69.54
59767;BME280;46248;58.364;25.582;2022-10-22T12:09:51;100560.72;;;8.32;68.72
59767;BME280;46248;58.364;25.582;2022-10-22T12:13:19;100559.78;;;8.33;67.72
59767;BME280;46248;58.364;25.582;2022-10-22T12:16:43;100531.78;;;8.16;69.08
59767;BME280;46248;58.364;25.582;2022-10-22T12:20:23;100546.88;;;8.30;68.07
59767;BME280;46248;58.364;25.582;2022-10-22T12:23:46;100535.50;;;8.31;69.54
59767;BME280;46248;58.364;25.582;2022-10-22T12:27:16;100539.03;;;8.30;69.17
59767;BME280;46248;58.364;25.582;2022-10-22T12:30:42;100533.81;;;8.30;69.86
59767;BME280;46248;58.364;25.582;2022-10-22T12:34:04;100522.66;;;8.26;69.03
59767;BME280;46248;58.364;25.582;2022-10-22T12:37:29;100527.63;;;8.33;70.02
59767;BME280;46248;58.364;25.582;2022-10-22T12:40:54;100528.47;;;8.33;68.53
59767;BME280;46248;58.364;25.582;2022-10-22T12:44:17;100507.91;;;8.25;69.01
59767;BME280;46248;58.364;25.582;2022-10-22T12:47:39;100510.34;;;8.30;69.25
59767;BME280;46248;58.364;25.582;2022-10-22T12:51:06;100505.31;;;8.25;69.26
59767;BME280;46248;58.364;25.582;2022-10-22T12:54:31;100518.03;;;8.33;68.79
59767;BME280;46248;58.364;25.582;2022-10-22T12:57:54;100495.75;;;8.26;68.96
59767;BME280;46248;58.364;25.582;2022-10-22T13:01:17;100505.00;;;8.33;69.46
59767;BME280;46248;58.364;25.582;2022-10-22T13:04:39;100499.84;;;8.32;70.04
59767;BME280;46248;58.364;25.582;2022-10-22T13:08:02;100499.84;;;8.32;69.67
59767;BME280;46248;58.364;25.582;2022-10-22T13:11:32;100486.16;;;8.26;69.04
59767;BME280;46248;58.364;25.582;2022-10-22T13:14:54;100482.84;;;8.23;69.82
59767;BME280;46248;58.364;25.582;2022-10-22T13:18:17;100487.91;;;8.26;69.62
59767;BME280;46248;58.364;25.582;2022-10-22T13:21:40;100478.47;;;8.23;69.87
59767;BME280;46248;58.364;25.582;2022-10-22T13:25:21;100465.69;;;8.17;68.69
59767;BME280;46248;58.364;25.582;2022-10-22T13:28:51;100478.63;;;8.19;69.19
59767;BME280;46248;58.364;25.582;2022-10-22T13:32:26;100476.25;;;8.14;68.77
59767;BME280;46248;58.364;25.582;2022-10-22T13:35:48;100467.88;;;8.06;69.44
59767;BME280;46248;58.364;25.582;2022-10-22T13:39:12;100477.38;;;8.07;69.61
59767;BME280;46248;58.364;25.582;2022-10-22T13:42:37;100469.69;;;8.04;69.66
59767;BME280;46248;58.364;25.582;2022-10-22T13:46:01;100461.09;;;8.02;70.01
59767;BME280;46248;58.364;25.582;2022-10-22T13:49:23;100428.19;;;7.77;70.22
59767;BME280;46248;58.364;25.582;2022-10-22T13:52:46;100454.69;;;7.89;70.25
59767;BME280;46248;58.364;25.582;2022-10-22T13:56:13;100449.84;;;7.79;70.00
59767;BME280;46248;58.364;25.582;2022-10-22T13:59:35;100449.03;;;7.77;70.04
59767;BME280;46248;58.364;25.582;2022-10-22T14:02:59;100437.97;;;7.72;70.47
59767;BME280;46248;58.364;25.582;2022-10-22T14:06:21;100431.38;;;7.64;70.82
59767;BME280;46248;58.364;25.582;2022-10-22T14:09:48;100435.88;;;7.60;70.88
59767;BME280;46248;58.364;25.582;2022-10-22T14:13:11;100434.53;;;7.50;71.14
59767;BME280;46248;58.364;25.582;2022-10-22T14:16:33;100436.41;;;7.46;70.94
59767;BME280;46248;58.364;25.582;2022-10-22T14:19:58;100434.97;;;7.39;71.12
59767;BME280;46248;58.364;25.582;2022-10-22T14:23:23;100429.31;;;7.28;71.04
59767;BME280;46248;58.364;25.582;2022-10-22T14:26:47;100429.53;;;7.23;71.75
59767;BME280;46248;58.364;25.582;2022-10-22T14:30:13;100430.63;;;7.16;72.21
59767;BME280;46248;58.364;25.582;2022-10-22T14:33:36;100421.63;;;7.03;72.18
59767;BME280;46248;58.364;25.582;2022-10-22T14:37:02;100424.44;;;6.97;72.14
59767;BME280;46248;58.364;25.582;2022-10-22T14:40:25;100429.03;;;6.90;72.57
59767;BME280;46248;58.364;25.582;2022-10-22T14:43:49;100418.53;;;6.70;72.74
59767;BME280;46248;58.364;25.582;2022-10-22T14:47:12;100441.88;;;6.71;72.75
59767;BME280;46248;58.364;25.582;2022-10-22T14:50:34;100437.00;;;6.62;73.63
59767;BME280;46248;58.364;25.582;2022-10-22T14:53:59;100423.13;;;6.38;73.78
59767;BME280;46248;58.364;25.582;2022-10-22T14:57:22;100436.22;;;6.35;74.32
59767;BME280;46248;58.364;25.582;2022-10-22T15:00:44;100410.31;;;6.08;74.73
59767;BME280;46248;58.364;25.582;2022-10-22T15:04:07;100426.66;;;6.12;74.95
59767;BME280;46248;58.364;25.582;2022-10-22T15:07:30;100439.00;;;6.05;75.11
59767;BME280;46248;58.364;25.582;2022-10-22T15:11:02;100434.19;;;5.93;75.27
59767;BME280;46248;58.364;25.582;2022-10-22T15:14:26;100438.06;;;5.80;75.93
59767;BME280;46248;58.364;25.582;2022-10-22T15:17:49;100432.38;;;5.68;76.09
59767;BME280;46248;58.364;25.582;2022-10-22T15:21:14;100436.91;;;5.62;76.52
59767;BME280;46248;58.364;25.582;2022-10-22T15:24:37;100437.22;;;5.53;76.85
59767;BME280;46248;58.364;25.582;2022-10-22T15:28:02;100438.34;;;5.44;77.12
59767;BME280;46248;58.364;25.582;2022-10-22T15:31:44;100437.69;;;5.37;77.50
59767;BME280;46248;58.364;25.582;2022-10-22T15:35:08;100438.81;;;5.28;77.75
59767;BME280;46248;58.364;25.582;2022-10-22T15:38:31;100432.22;;;5.18;78.13
59767;BME280;46248;58.364;25.582;2022-10-22T15:41:54;100430.84;;;5.07;78.97
59767;BME280;46248;58.364;25.582;2022-10-22T15:45:18;100438.72;;;5.03;78.76
59767;BME280;46248;58.364;25.582;2022-10-22T15:48:47;100436.31;;;4.97;78.93
59767;BME280;46248;58.364;25.582;2022-10-22T15:52:10;100432.25;;;4.89;79.35
59767;BME280;46248;58.364;25.582;2022-10-22T15:55:33;100432.41;;;4.82;79.62
59767;BME280;46248;58.364;25.582;2022-10-22T15:58:57;100423.22;;;4.72;80.26
59767;BME280;46248;58.364;25.582;2022-10-22T16:02:23;100423.31;;;4.69;80.04
59767;BME280;46248;58.364;25.582;2022-10-22T16:05:49;100416.63;;;4.61;80.13
59767;BME280;46248;58.364;25.582;2022-10-22T16:09:16;100405.03;;;4.43;81.27
59767;BME280;46248;58.364;25.582;2022-10-22T16:12:40;100420.50;;;4.46;81.41
59767;BME280;46248;58.364;25.582;2022-10-22T16:16:04;100391.72;;;4.24;81.84
59767;BME280;46248;58.364;25.582;2022-10-22T16:19:30;100415.66;;;4.33;81.42
59767;BME280;46248;58.364;25.582;2022-10-22T16:22:53;100387.00;;;4.05;82.29
59767;BME280;46248;58.364;25.582;2022-10-22T16:26:18;100413.38;;;4.21;82.63
59767;BME280;46248;58.364;25.582;2022-10-22T16:29:42;100407.63;;;4.10;82.54
59767;BME280;46248;58.364;25.582;2022-10-22T16:33:06;100410.25;;;4.08;82.94
59767;BME280;46248;58.364;25.582;2022-10-22T16:36:32;100410.41;;;4.02;82.88
59767;BME280;46248;58.364;25.582;2022-10-22T16:39:56;100406.25;;;3.97;83.03
59767;BME280;46248;58.364;25.582;2022-10-22T16:43:25;100415.88;;;3.92;84.10
59767;BME280;46248;58.364;25.582;2022-10-22T16:46:51;100414.28;;;3.86;83.45
59767;BME280;46248;58.364;25.582;2022-10-22T16:50:15;100405.78;;;3.81;83.94
59767;BME280;46248;58.364;25.582;2022-10-22T16:53:40;100398.16;;;3.75;84.79
59767;BME280;46248;58.364;25.582;2022-10-22T16:57:04;100404.34;;;3.69;83.77
59767;BME280;46248;58.364;25.582;2022-10-22T17:00:27;100406.06;;;3.70;84.77
59767;BME280;46248;58.364;25.582;2022-10-22T17:03:51;100403.56;;;3.67;84.32
59767;BME280;46248;58.364;25.582;2022-10-22T17:07:15;100400.22;;;3.62;84.76
59767;BME280;46248;58.364;25.582;2022-10-22T17:10:39;100404.50;;;3.63;84.32
59767;BME280;46248;58.364;25.582;2022-10-22T17:14:03;100405.44;;;3.60;84.34
59767;BME280;46248;58.364;25.582;2022-10-22T17:17:27;100376.53;;;3.43;85.57
59767;BME280;46248;58.364;25.582;2022-10-22T17:20:50;100399.53;;;3.55;88.35
59767;BME280;46248;58.364;25.582;2022-10-22T17:24:17;100398.69;;;3.55;88.77
59767;BME280;46248;58.364;25.582;2022-10-22T17:27:43;100395.31;;;3.51;88.24
59767;BME280;46248;58.364;25.582;2022-10-22T17:31:09;100391.13;;;3.46;89.51
59767;BME280;46248;58.364;25.582;2022-10-22T17:34:33;100387.84;;;3.39;88.19
59767;BME280;46248;58.364;25.582;2022-10-22T17:37:57;100391.34;;;3.36;87.77
59767;BME280;46248;58.364;25.582;2022-10-22T17:41:22;100391.50;;;3.30;86.89
59767;BME280;46248;58.364;25.582;2022-10-22T17:44:47;100364.31;;;3.11;86.75
59767;BME280;46248;58.364;25.582;2022-10-22T17:48:11;100379.72;;;3.17;86.87
59767;BME280;46248;58.364;25.582;2022-10-22T17:51:34;100361.09;;;3.01;86.52
59767;BME280;46248;58.364;25.582;2022-10-22T17:54:57;100376.53;;;3.06;86.37
59767;BME280;46248;58.364;25.582;2022-10-22T17:58:20;100367.31;;;2.94;86.77
59767;BME280;46248;58.364;25.582;2022-10-22T18:01:45;100359.66;;;2.89;86.89
59767;BME280;46248;58.364;25.582;2022-10-22T18:05:09;100346.97;;;2.79;86.32